Terminal Aerodrome Forecast
Issued by NWS Louisville, KY

Home | Current Version | Previous Version | Text Only | Print | Product List | Glossary On
Versions: 1 2 3 4 5 6 7 8 9 10 11 12 13 14 15 16 17 18 19
365
FTUS43 KLMK 200838 AAA
TAFSDF
TAF AMD
KSDF 200838Z 2009/2112 VRB04KT P6SM FEW040 BKN200
      TEMPO 2009/2010 16008KT 4SM -TSRA BKN050CB
     FM201400 19008KT P6SM VCTS SCT040CB BKN150
     FM201900 17010KT P6SM BKN080
     FM210200 15007KT P6SM -SHRA VCTS SCT040CB BKN080
     FM210800 17007KT P6SM -SHRA BKN040=

USA.gov is the U.S. government's official web portal to all federal, state and local government web resources and services.